createdAt,value
2023-02-23T00:01:23.076Z,84.00
2023-02-23T00:03:30.234Z,83.70
2023-02-23T00:05:40.512Z,83.50
2023-02-23T00:07:48.047Z,83.50
2023-02-23T00:09:56.202Z,83.50
2023-02-23T00:12:08.584Z,83.30
2023-02-23T00:14:15.940Z,83.30
2023-02-23T00:16:24.952Z,83.10
2023-02-23T00:18:32.146Z,83.40
2023-02-23T00:20:46.348Z,83.50
2023-02-23T00:22:54.757Z,83.50
2023-02-23T00:25:02.455Z,83.70
2023-02-23T00:27:11.064Z,84.00
2023-02-23T00:29:19.991Z,84.10
2023-02-23T00:31:28.853Z,83.70
2023-02-23T00:33:37.218Z,83.60
2023-02-23T00:35:46.349Z,83.30
2023-02-23T00:37:53.332Z,83.30
2023-02-23T00:40:00.766Z,83.20
2023-02-23T00:42:08.660Z,83.10
2023-02-23T00:44:16.660Z,82.40
2023-02-23T00:46:25.075Z,82.10
2023-02-23T00:48:32.408Z,81.80
2023-02-23T00:50:42.609Z,81.60
2023-02-23T00:52:51.840Z,81.70
2023-02-23T00:54:58.975Z,81.20
2023-02-23T00:57:06.361Z,81.40
2023-02-23T00:59:13.747Z,81.60
2023-02-23T01:01:22.048Z,80.80
2023-02-23T01:03:31.029Z,80.40
2023-02-23T01:05:39.090Z,80.80
2023-02-23T01:07:47.739Z,80.40
2023-02-23T01:09:56.868Z,79.40
2023-02-23T01:12:08.348Z,79.50
2023-02-23T01:14:15.271Z,79.40
2023-02-23T01:16:24.245Z,78.90
2023-02-23T01:18:31.205Z,78.50
2023-02-23T01:20:42.665Z,78.50
2023-02-23T01:22:52.606Z,77.60
2023-02-23T01:25:01.681Z,77.40
2023-02-23T01:27:08.701Z,77.50
2023-02-23T01:29:18.174Z,76.70
2023-02-23T01:31:25.845Z,77.00
2023-02-23T01:33:33.116Z,76.80
2023-02-23T01:35:40.859Z,76.90
2023-02-23T01:37:48.451Z,77.00
2023-02-23T01:39:55.529Z,75.70
2023-02-23T01:42:06.398Z,75.40
2023-02-23T01:44:51.470Z,75.40
2023-02-23T01:46:59.430Z,75.00
2023-02-23T01:49:07.115Z,74.80
2023-02-23T01:51:17.023Z,74.30
2023-02-23T01:53:25.213Z,74.30
2023-02-23T01:55:33.576Z,73.50
2023-02-23T01:57:42.750Z,73.30
2023-02-23T01:59:51.877Z,73.20
2023-02-23T02:02:01.669Z,72.40
2023-02-23T02:04:09.157Z,72.40
2023-02-23T02:06:18.798Z,72.80
2023-02-23T02:08:27.771Z,73.30
2023-02-23T02:10:46.935Z,72.70
2023-02-23T02:13:00.008Z,72.80
2023-02-23T02:15:09.642Z,72.50
2023-02-23T02:17:31.160Z,71.50
2023-02-23T02:20:14.755Z,70.90
2023-02-23T02:22:49.217Z,71.10
2023-02-23T02:25:34.646Z,70.80
2023-02-23T02:28:10.449Z,70.20
2023-02-23T02:30:46.637Z,69.60
2023-02-23T02:33:33.068Z,70.10
2023-02-23T02:36:18.798Z,70.10
2023-02-23T02:38:51.783Z,69.00
2023-02-23T02:41:05.210Z,69.80
2023-02-23T02:43:19.975Z,69.20
2023-02-23T02:45:31.762Z,69.30
2023-02-23T02:47:42.065Z,69.40
2023-02-23T02:49:53.705Z,68.40
2023-02-23T02:52:09.030Z,69.20
2023-02-23T02:54:26.449Z,68.80
2023-02-23T02:56:34.605Z,68.40
2023-02-23T02:58:44.605Z,67.70
2023-02-23T03:01:09.843Z,67.40
2023-02-23T03:03:51.604Z,67.70
2023-02-23T03:06:16.093Z,66.70
2023-02-23T03:08:43.698Z,67.10
2023-02-23T03:11:16.693Z,66.60
2023-02-23T03:13:53.049Z,65.70
2023-02-23T03:16:33.206Z,65.20
2023-02-23T03:19:18.633Z,65.90
2023-02-23T03:21:47.526Z,65.80
2023-02-23T03:24:20.101Z,65.60
2023-02-23T03:26:55.908Z,65.80
2023-02-23T03:29:28.437Z,65.70
2023-02-23T03:32:00.487Z,65.60
2023-02-23T03:34:30.903Z,65.50
2023-02-23T03:36:58.994Z,64.90
2023-02-23T03:39:30.700Z,64.10
2023-02-23T03:42:00.169Z,63.10
2023-02-23T03:44:29.199Z,62.70
2023-02-23T03:46:55.030Z,63.00
2023-02-23T03:49:22.021Z,62.80
2023-02-23T03:51:47.628Z,63.00
2023-02-23T03:54:13.762Z,63.50
2023-02-23T03:56:40.753Z,62.50
2023-02-23T03:59:10.929Z,61.70
2023-02-23T04:01:38.010Z,62.90
2023-02-23T04:04:04.142Z,62.50
2023-02-23T04:06:31.188Z,61.10
2023-02-23T04:08:57.670Z,61.50
2023-02-23T04:11:29.895Z,61.30
2023-02-23T04:13:38.816Z,61.40
2023-02-23T04:15:53.007Z,60.30
2023-02-23T04:18:00.599Z,59.20
2023-02-23T04:20:09.218Z,61.20
2023-02-23T04:22:16.497Z,61.10
2023-02-23T04:24:23.884Z,59.50
2023-02-23T04:26:31.066Z,60.40
2023-02-23T04:28:38.097Z,60.40
2023-02-23T04:30:47.140Z,60.40
2023-02-23T04:32:54.096Z,60.10
2023-02-23T04:35:01.696Z,60.50
2023-02-23T04:37:08.716Z,59.40
2023-02-23T04:39:16.364Z,59.60
2023-02-23T04:41:23.339Z,58.70
2023-02-23T04:43:30.673Z,57.80
2023-02-23T04:45:37.817Z,57.20
2023-02-23T04:47:46.694Z,56.40
2023-02-23T04:49:53.601Z,57.20
2023-02-23T04:52:00.938Z,56.70
2023-02-23T04:54:08.119Z,56.70
2023-02-23T04:56:15.249Z,57.00
2023-02-23T04:58:22.122Z,56.70
2023-02-23T05:00:30.474Z,56.80
2023-02-23T05:02:37.475Z,57.00
2023-02-23T05:04:46.475Z,57.80
2023-02-23T05:06:53.665Z,56.10
2023-02-23T05:09:01.111Z,55.80
2023-02-23T05:11:09.776Z,56.30
2023-02-23T05:13:17.373Z,55.40
2023-02-23T05:15:24.293Z,55.10
2023-02-23T05:17:31.508Z,55.10
2023-02-23T05:19:38.548Z,55.00
2023-02-23T05:21:47.572Z,55.30
2023-02-23T05:23:54.752Z,54.60
2023-02-23T05:26:07.364Z,53.90
2023-02-23T05:28:14.360Z,53.90
2023-02-23T05:30:21.982Z,54.60
2023-02-23T05:32:28.976Z,54.50
2023-02-23T05:34:36.398Z,53.70
2023-02-23T05:36:43.268Z,53.50
2023-02-23T05:38:52.451Z,53.50
2023-02-23T05:40:59.320Z,53.60
2023-02-23T05:43:06.399Z,53.10
2023-02-23T05:45:13.476Z,53.50
2023-02-23T05:47:20.815Z,54.20
2023-02-23T05:49:27.843Z,53.70
2023-02-23T05:51:37.277Z,54.00
2023-02-23T05:53:44.661Z,53.50
2023-02-23T05:55:53.738Z,53.60
2023-02-23T05:58:00.713Z,52.60
2023-02-23T06:00:10.051Z,53.10
2023-02-23T06:02:16.989Z,52.30
2023-02-23T06:04:24.363Z,51.80
2023-02-23T06:06:31.544Z,50.60
2023-02-23T06:08:38.723Z,51.40
2023-02-23T06:10:45.602Z,51.40
2023-02-23T06:12:54.419Z,50.10
2023-02-23T06:15:01.814Z,50.70
2023-02-23T06:17:09.350Z,50.40
2023-02-23T06:19:16.290Z,50.20
2023-02-23T06:21:23.967Z,49.90
2023-02-23T06:23:31.508Z,49.00
2023-02-23T06:25:38.943Z,50.40
2023-02-23T06:27:46.590Z,50.80
2023-02-23T06:29:55.713Z,50.80
2023-02-23T06:32:02.932Z,50.00
2023-02-23T06:34:10.284Z,49.30
2023-02-23T06:36:17.674Z,50.00
2023-02-23T06:38:27.153Z,49.40
2023-02-23T06:40:34.077Z,49.20
2023-02-23T06:42:41.568Z,49.00
2023-02-23T06:44:48.597Z,48.60
2023-02-23T06:46:57.746Z,46.30
2023-02-23T06:49:04.700Z,48.50
2023-02-23T06:51:11.934Z,48.40
2023-02-23T06:53:19.371Z,49.70
2023-02-23T06:55:26.809Z,49.10
2023-02-23T06:57:33.784Z,48.70
2023-02-23T06:59:41.067Z,48.40
2023-02-23T07:01:48.052Z,48.80
2023-02-23T07:03:57.145Z,49.10
2023-02-23T07:06:05.784Z,48.80
2023-02-23T07:08:12.862Z,47.90
2023-02-23T07:10:20.657Z,47.60
2023-02-23T07:12:27.945Z,46.20
2023-02-23T07:14:35.378Z,47.00
2023-02-23T07:16:43.037Z,46.50
2023-02-23T07:18:50.051Z,46.80
2023-02-23T07:20:59.049Z,46.90
2023-02-23T07:23:05.998Z,48.20
2023-02-23T07:25:13.750Z,48.20
2023-02-23T07:27:20.622Z,47.40
2023-02-23T07:29:29.234Z,47.30
2023-02-23T07:31:36.232Z,47.50
2023-02-23T07:33:43.440Z,47.60
2023-02-23T07:35:50.318Z,47.70
2023-02-23T07:37:59.395Z,51.10
2023-02-23T07:40:07.039Z,47.90
2023-02-23T07:42:14.270Z,48.50
2023-02-23T07:44:21.198Z,48.50
2023-02-23T07:46:28.640Z,49.10
2023-02-23T07:48:36.125Z,47.80
2023-02-23T07:50:44.449Z,47.90
2023-02-23T07:52:51.736Z,46.30
2023-02-23T07:55:00.589Z,47.60
2023-02-23T07:57:07.469Z,47.30
2023-02-23T07:59:15.271Z,47.20
2023-02-23T08:01:22.499Z,47.70
2023-02-23T08:03:29.931Z,47.20
2023-02-23T08:05:37.729Z,47.30
2023-02-23T08:07:45.065Z,47.80
2023-02-23T08:09:52.552Z,47.60
2023-02-23T08:12:01.534Z,47.60
2023-02-23T08:14:08.500Z,48.50
2023-02-23T08:16:17.440Z,48.80
2023-02-23T08:18:24.480Z,47.70
2023-02-23T08:20:33.324Z,46.40
2023-02-23T08:22:49.390Z,47.50
2023-02-23T08:24:57.061Z,47.70
2023-02-23T08:27:06.337Z,47.70
2023-02-23T08:29:13.932Z,47.50
2023-02-23T08:31:25.285Z,48.50
2023-02-23T08:33:33.283Z,49.00
2023-02-23T08:35:40.340Z,48.60
2023-02-23T08:37:48.083Z,49.00
2023-02-23T08:39:55.007Z,47.90
2023-02-23T08:42:03.982Z,46.80
2023-02-23T08:44:11.069Z,47.80
2023-02-23T08:46:21.235Z,47.40
2023-02-23T08:48:28.216Z,47.50
2023-02-23T08:50:35.367Z,47.40
2023-02-23T08:52:42.665Z,47.20
2023-02-23T08:54:50.241Z,47.30
2023-02-23T08:57:00.597Z,47.00
2023-02-23T08:59:09.685Z,48.00
2023-02-23T09:01:24.542Z,47.60
2023-02-23T09:03:32.960Z,46.40
2023-02-23T09:05:41.429Z,47.40
2023-02-23T09:07:50.225Z,47.50
2023-02-23T09:10:01.145Z,47.90
2023-02-23T09:12:08.787Z,47.60
2023-02-23T09:14:17.970Z,47.00
2023-02-23T09:16:25.095Z,46.60
2023-02-23T09:18:33.663Z,46.70
2023-02-23T09:20:42.075Z,46.90
2023-02-23T09:22:55.188Z,47.70
2023-02-23T09:25:02.475Z,47.30
2023-02-23T09:27:13.599Z,47.40
2023-02-23T09:29:22.674Z,47.00
2023-02-23T09:31:29.981Z,47.10
2023-02-23T09:33:37.402Z,47.00
2023-02-23T09:35:44.528Z,47.00
2023-02-23T09:37:52.886Z,46.80
2023-02-23T09:39:59.800Z,46.70
2023-02-23T09:42:23.279Z,46.80
2023-02-23T09:44:56.159Z,46.50
2023-02-23T09:47:13.900Z,46.60
2023-02-23T09:49:25.630Z,47.50
2023-02-23T09:51:36.027Z,47.80
2023-02-23T09:53:46.801Z,47.90
2023-02-23T09:55:56.542Z,48.50
2023-02-23T09:58:11.764Z,47.80
2023-02-23T10:00:26.369Z,47.20
2023-02-23T10:02:37.958Z,47.30
2023-02-23T10:04:49.666Z,47.40
2023-02-23T10:07:03.788Z,47.70
2023-02-23T10:09:22.134Z,48.20
2023-02-23T10:11:33.130Z,47.70
2023-02-23T10:13:51.705Z,48.20
2023-02-23T10:16:04.173Z,48.00
2023-02-23T10:18:33.221Z,48.10
2023-02-23T10:20:53.746Z,48.10
2023-02-23T10:23:06.565Z,48.10
2023-02-23T10:25:16.612Z,48.20
2023-02-23T10:27:26.096Z,48.30
2023-02-23T10:29:37.834Z,48.50
2023-02-23T10:31:50.584Z,49.40
2023-02-23T10:34:01.309Z,49.20
2023-02-23T10:36:19.709Z,49.50
2023-02-23T10:38:26.682Z,49.90
2023-02-23T10:40:37.445Z,50.50
2023-02-23T10:42:44.630Z,51.00
2023-02-23T10:44:52.786Z,51.20
2023-02-23T10:47:04.664Z,51.20
2023-02-23T10:49:23.582Z,51.20
2023-02-23T10:51:39.632Z,51.10
2023-02-23T10:53:46.858Z,51.20
2023-02-23T10:56:08.242Z,51.10
2023-02-23T10:58:19.650Z,51.40
2023-02-23T11:00:34.155Z,52.20
2023-02-23T11:02:43.843Z,52.50
2023-02-23T11:04:57.126Z,52.30
2023-02-23T11:07:24.407Z,52.00
2023-02-23T11:09:46.188Z,51.90
2023-02-23T11:12:01.565Z,52.00
2023-02-23T11:14:20.725Z,51.70
2023-02-23T11:16:30.005Z,51.40
2023-02-23T11:18:39.393Z,51.60
2023-02-23T11:20:47.185Z,51.60
2023-02-23T11:22:55.758Z,51.60
2023-02-23T11:25:17.782Z,52.00
2023-02-23T11:27:27.246Z,52.20
2023-02-23T11:29:37.880Z,52.30
2023-02-23T11:31:52.098Z,52.50
2023-02-23T11:34:01.968Z,52.90
2023-02-23T11:36:21.197Z,54.30
2023-02-23T11:38:29.800Z,56.40
2023-02-23T11:40:37.538Z,55.50
2023-02-23T11:42:56.344Z,55.40
2023-02-23T11:45:08.988Z,55.90
2023-02-23T11:47:21.817Z,56.70
2023-02-23T11:49:34.327Z,57.50
2023-02-23T11:51:43.307Z,57.50
2023-02-23T11:53:51.065Z,58.20
2023-02-23T11:56:03.718Z,58.60
2023-02-23T11:58:23.691Z,59.30
2023-02-23T12:00:31.841Z,60.60
2023-02-23T12:02:51.570Z,61.20
2023-02-23T12:05:10.758Z,62.10
2023-02-23T12:07:42.642Z,62.10
2023-02-23T12:09:52.692Z,63.10
2023-02-23T12:12:10.114Z,61.60
2023-02-23T12:14:28.925Z,62.00
2023-02-23T12:16:41.654Z,62.20
2023-02-23T12:18:56.035Z,62.80
2023-02-23T12:21:13.399Z,63.50
2023-02-23T12:23:25.716Z,62.70
2023-02-23T12:25:38.118Z,62.50
2023-02-23T12:27:48.772Z,63.20
2023-02-23T12:30:09.124Z,62.80
2023-02-23T12:32:21.308Z,62.40
2023-02-23T12:34:34.068Z,62.50
2023-02-23T12:36:46.791Z,64.00
2023-02-23T12:38:59.391Z,64.10
2023-02-23T12:41:12.819Z,63.90
2023-02-23T12:43:26.141Z,63.70
2023-02-23T12:45:39.184Z,64.50
2023-02-23T12:47:52.534Z,65.00
2023-02-23T12:50:13.830Z,65.70
2023-02-23T12:52:27.127Z,65.70
2023-02-23T12:54:35.992Z,66.00
2023-02-23T12:57:05.189Z,66.50
2023-02-23T12:59:34.340Z,67.50
2023-02-23T13:01:45.977Z,68.00
2023-02-23T13:04:10.781Z,67.20
2023-02-23T13:06:26.044Z,68.30
2023-02-23T13:08:49.765Z,67.50
2023-02-23T13:11:07.543Z,67.60
2023-02-23T13:13:25.745Z,67.80
2023-02-23T13:15:47.764Z,67.50
2023-02-23T13:18:02.651Z,68.00
2023-02-23T13:20:19.237Z,68.30
2023-02-23T13:22:35.527Z,68.90
2023-02-23T13:24:49.364Z,69.40
2023-02-23T13:27:02.894Z,69.10
2023-02-23T13:29:25.651Z,69.20
2023-02-23T13:31:36.316Z,69.40
2023-02-23T13:33:44.610Z,69.60
2023-02-23T13:35:51.945Z,69.90
2023-02-23T13:38:04.975Z,70.30
2023-02-23T13:40:31.205Z,71.00
2023-02-23T13:42:48.515Z,71.60
2023-02-23T13:45:02.089Z,71.60
2023-02-23T13:47:17.820Z,72.10
2023-02-23T13:49:37.700Z,72.20
2023-02-23T13:51:49.849Z,72.30
2023-02-23T13:54:05.327Z,72.30
2023-02-23T13:56:18.653Z,73.20
2023-02-23T13:58:33.006Z,73.70
2023-02-23T14:00:40.030Z,74.30
2023-02-23T14:02:49.511Z,74.40
2023-02-23T14:04:59.922Z,75.10
2023-02-23T14:07:19.901Z,74.90
2023-02-23T14:09:33.024Z,74.80
2023-02-23T14:11:52.287Z,74.90
2023-02-23T14:14:03.670Z,75.80
2023-02-23T14:16:17.590Z,75.60
2023-02-23T14:18:35.954Z,75.70
2023-02-23T14:20:58.253Z,76.30
2023-02-23T14:23:22.531Z,76.50
2023-02-23T14:25:48.753Z,77.80
2023-02-23T14:28:07.760Z,77.40
2023-02-23T14:30:26.466Z,77.80
2023-02-23T14:32:40.700Z,77.40
2023-02-23T14:34:51.233Z,77.30
2023-02-23T14:36:58.557Z,77.50
2023-02-23T14:39:10.279Z,77.60
2023-02-23T14:41:17.565Z,77.60
2023-02-23T14:43:47.394Z,77.50
2023-02-23T14:45:58.907Z,77.80
2023-02-23T14:48:09.379Z,77.70
2023-02-23T14:50:21.376Z,77.80
2023-02-23T14:52:30.842Z,77.60
2023-02-23T14:54:39.628Z,77.70
2023-02-23T14:56:53.985Z,77.90
2023-02-23T14:59:03.049Z,78.20
2023-02-23T15:01:09.975Z,78.00
2023-02-23T15:03:17.156Z,78.00
2023-02-23T15:05:28.487Z,78.30
2023-02-23T15:07:39.968Z,78.40
2023-02-23T15:09:48.192Z,78.60
2023-02-23T15:11:56.787Z,78.70
2023-02-23T15:14:07.381Z,78.90
2023-02-23T15:16:22.724Z,78.60
2023-02-23T15:18:34.102Z,78.30
2023-02-23T15:20:41.542Z,78.30
2023-02-23T15:22:51.543Z,78.80
2023-02-23T15:25:02.046Z,79.00
2023-02-23T15:27:08.974Z,80.50
2023-02-23T15:29:20.046Z,81.70
2023-02-23T15:31:27.028Z,83.00
2023-02-23T15:33:34.615Z,83.90
2023-02-23T15:35:48.515Z,82.20
2023-02-23T15:38:05.868Z,81.30
2023-02-23T15:40:24.426Z,81.10
2023-02-23T15:42:37.507Z,81.10
2023-02-23T15:44:46.468Z,81.10
2023-02-23T15:46:57.538Z,81.10
2023-02-23T15:49:06.410Z,81.40
2023-02-23T15:51:27.495Z,81.70
2023-02-23T15:53:39.360Z,82.20
2023-02-23T15:55:47.362Z,81.80
2023-02-23T15:57:59.922Z,81.70
2023-02-23T16:00:20.630Z,81.80
2023-02-23T16:02:28.981Z,81.80
2023-02-23T16:04:43.279Z,81.60
2023-02-23T16:06:55.153Z,81.60
2023-02-23T16:09:04.191Z,81.90
2023-02-23T16:11:16.092Z,81.30
2023-02-23T16:13:25.269Z,81.20
2023-02-23T16:15:38.696Z,81.50
2023-02-23T16:17:48.848Z,81.60
2023-02-23T16:19:57.655Z,81.50
2023-02-23T16:22:04.592Z,81.60
2023-02-23T16:24:23.243Z,81.60
2023-02-23T16:26:34.060Z,81.80
2023-02-23T16:28:46.442Z,81.60
2023-02-23T16:31:00.188Z,81.60
2023-02-23T16:33:13.978Z,82.10
2023-02-23T16:35:22.706Z,81.50
2023-02-23T16:37:29.892Z,81.60
2023-02-23T16:39:36.760Z,82.00
2023-02-23T16:41:44.151Z,82.20
2023-02-23T16:43:52.920Z,81.90
2023-02-23T16:46:02.204Z,82.30
2023-02-23T16:48:12.662Z,83.30
2023-02-23T16:50:21.995Z,83.20
2023-02-23T16:52:28.963Z,82.80
2023-02-23T16:54:36.147Z,82.80
2023-02-23T16:56:43.635Z,82.80
2023-02-23T16:58:54.810Z,82.70
2023-02-23T17:01:03.639Z,82.90
2023-02-23T17:03:16.474Z,83.20
2023-02-23T17:05:26.286Z,83.40
2023-02-23T17:07:33.215Z,83.20
2023-02-23T17:09:40.396Z,82.90
2023-02-23T17:11:48.038Z,82.70
2023-02-23T17:13:55.228Z,82.80
2023-02-23T17:16:05.525Z,82.90
2023-02-23T17:18:12.808Z,83.10
2023-02-23T17:20:22.500Z,83.20
2023-02-23T17:22:30.141Z,83.10
2023-02-23T17:24:37.373Z,83.40
2023-02-23T17:26:44.553Z,83.40
2023-02-23T17:28:52.295Z,83.40
2023-02-23T17:30:59.259Z,83.80
2023-02-23T17:33:09.591Z,84.10
2023-02-23T17:35:16.658Z,84.30
2023-02-23T17:37:23.842Z,84.10
2023-02-23T17:39:30.813Z,83.80
2023-02-23T17:41:38.045Z,83.70
2023-02-23T17:43:45.022Z,83.50
2023-02-23T17:45:52.610Z,83.50
2023-02-23T17:48:00.511Z,83.40
2023-02-23T17:50:10.662Z,83.40
2023-02-23T17:52:17.745Z,82.70
2023-02-23T17:54:25.076Z,83.30
2023-02-23T17:56:32.653Z,84.00
2023-02-23T17:58:40.469Z,84.70
2023-02-23T18:00:47.390Z,85.10
2023-02-23T18:02:54.599Z,85.30
2023-02-23T18:05:01.548Z,85.10
2023-02-23T18:07:10.470Z,85.10
2023-02-23T18:09:17.721Z,84.90
2023-02-23T18:11:24.996Z,84.60
2023-02-23T18:13:34.350Z,84.60
2023-02-23T18:15:41.307Z,84.40
2023-02-23T18:17:48.630Z,84.30
2023-02-23T18:19:55.866Z,84.30
2023-02-23T18:22:03.044Z,84.30
2023-02-23T18:24:11.918Z,84.10
2023-02-23T18:26:21.152Z,84.00
2023-02-23T18:28:28.002Z,84.00
2023-02-23T18:30:35.099Z,84.10
2023-02-23T18:32:42.233Z,84.20
2023-02-23T18:34:49.568Z,84.00
2023-02-23T18:36:56.600Z,84.00
2023-02-23T18:39:04.497Z,84.40
2023-02-23T18:41:13.725Z,85.00
2023-02-23T18:43:20.902Z,85.20
2023-02-23T18:45:27.934Z,86.30
2023-02-23T18:47:35.218Z,86.00
2023-02-23T18:49:42.466Z,85.20
2023-02-23T18:51:50.044Z,85.20
2023-02-23T18:53:57.428Z,85.30
2023-02-23T18:56:08.859Z,84.90
2023-02-23T18:58:17.526Z,85.00
2023-02-23T19:00:25.599Z,85.80
2023-02-23T19:02:32.657Z,86.70
2023-02-23T19:04:40.277Z,88.00
2023-02-23T19:06:49.224Z,88.70
2023-02-23T19:08:58.346Z,89.00
2023-02-23T19:11:05.586Z,88.20
2023-02-23T19:13:12.760Z,87.30
2023-02-23T19:15:21.636Z,86.80
2023-02-23T19:17:29.581Z,86.80
2023-02-23T19:19:36.663Z,87.60
2023-02-23T19:21:44.666Z,87.40
2023-02-23T19:23:51.952Z,87.40
2023-02-23T19:25:59.946Z,87.60
2023-02-23T19:28:06.981Z,87.90
2023-02-23T19:30:15.899Z,87.90
2023-02-23T19:32:24.632Z,87.70
2023-02-23T19:34:32.512Z,88.00
2023-02-23T19:36:39.492Z,88.00
2023-02-23T19:38:46.620Z,87.70
2023-02-23T19:40:53.853Z,87.50
2023-02-23T19:43:00.936Z,87.60
2023-02-23T19:45:08.784Z,88.30
2023-02-23T19:47:16.124Z,89.00
2023-02-23T19:49:25.045Z,89.60
2023-02-23T19:51:32.092Z,89.00
2023-02-23T19:53:39.300Z,88.60
2023-02-23T19:55:46.228Z,88.30
2023-02-23T19:57:54.904Z,88.70
2023-02-23T20:00:01.921Z,89.00
2023-02-23T20:02:15.801Z,89.00
2023-02-23T20:04:24.479Z,88.80
2023-02-23T20:06:33.298Z,88.90
2023-02-23T20:08:40.222Z,89.20
2023-02-23T20:10:47.865Z,89.50
2023-02-23T20:12:55.507Z,89.20
2023-02-23T20:15:02.891Z,88.50
2023-02-23T20:17:10.076Z,88.30
2023-02-23T20:19:17.360Z,88.20
2023-02-23T20:21:27.657Z,88.60
2023-02-23T20:23:35.012Z,88.70
2023-02-23T20:25:45.197Z,88.50
2023-02-23T20:27:53.181Z,88.20
2023-02-23T20:30:01.252Z,88.10
2023-02-23T20:32:09.415Z,88.00
2023-02-23T20:34:16.430Z,88.70
2023-02-23T20:36:26.582Z,88.90
2023-02-23T20:38:33.558Z,89.10
2023-02-23T20:40:41.206Z,89.60
2023-02-23T20:42:48.861Z,89.30
2023-02-23T20:44:56.487Z,88.90
2023-02-23T20:47:03.465Z,88.80
2023-02-23T20:49:12.798Z,89.10
2023-02-23T20:51:20.905Z,88.90
2023-02-23T20:53:31.360Z,88.60
2023-02-23T20:55:38.338Z,88.50
2023-02-23T20:57:47.146Z,88.50
2023-02-23T20:59:54.493Z,88.80
2023-02-23T21:02:02.751Z,88.90
2023-02-23T21:04:10.238Z,88.80
2023-02-23T21:06:17.833Z,88.90
2023-02-23T21:08:24.860Z,89.30
2023-02-23T21:10:37.009Z,89.50
2023-02-23T21:12:44.038Z,89.60
2023-02-23T21:14:52.291Z,89.80
2023-02-23T21:16:59.321Z,89.30
2023-02-23T21:19:09.425Z,89.00
2023-02-23T21:21:17.733Z,89.10
2023-02-23T21:23:24.966Z,89.30
2023-02-23T21:25:34.246Z,89.20
2023-02-23T21:27:41.933Z,88.90
2023-02-23T21:29:49.124Z,89.00
2023-02-23T21:31:56.453Z,89.30
2023-02-23T21:34:06.604Z,89.40
2023-02-23T21:36:14.862Z,89.00
2023-02-23T21:38:24.974Z,89.30
2023-02-23T21:40:34.294Z,89.60
2023-02-23T21:42:41.885Z,89.70
2023-02-23T21:44:49.376Z,89.20
2023-02-23T21:46:56.252Z,89.30
2023-02-23T21:49:10.602Z,89.60
2023-02-23T21:51:19.001Z,89.90
2023-02-23T21:53:26.603Z,89.90
2023-02-23T21:55:36.956Z,89.80
2023-02-23T21:57:44.240Z,89.30
2023-02-23T21:59:51.268Z,89.30
2023-02-23T22:01:58.467Z,90.00
2023-02-23T22:04:05.754Z,90.40
2023-02-23T22:06:13.018Z,90.70
2023-02-23T22:08:20.102Z,90.40
2023-02-23T22:10:28.302Z,90.30
2023-02-23T22:12:37.327Z,90.20
2023-02-23T22:14:44.561Z,90.00
2023-02-23T22:16:51.947Z,89.90
2023-02-23T22:18:59.221Z,89.80
2023-02-23T22:21:06.412Z,89.80
2023-02-23T22:23:14.976Z,90.80
2023-02-23T22:25:22.986Z,90.90
2023-02-23T22:27:30.364Z,90.80
2023-02-23T22:29:39.288Z,90.30
2023-02-23T22:31:46.761Z,90.30
2023-02-23T22:33:53.853Z,90.30
2023-02-23T22:36:03.593Z,90.10
2023-02-23T22:38:10.519Z,89.80
2023-02-23T22:40:18.377Z,89.60
2023-02-23T22:42:25.397Z,89.40
2023-02-23T22:44:32.577Z,89.40
2023-02-23T22:46:41.588Z,89.80
2023-02-23T22:48:49.552Z,90.30
2023-02-23T22:50:56.425Z,90.50
2023-02-23T22:53:04.271Z,90.40
2023-02-23T22:55:12.024Z,90.80
2023-02-23T22:57:19.302Z,90.40
2023-02-23T22:59:26.159Z,90.60
2023-02-23T23:01:33.209Z,90.60
2023-02-23T23:03:43.406Z,90.90
2023-02-23T23:05:53.351Z,91.00
2023-02-23T23:08:00.479Z,91.50
2023-02-23T23:10:10.272Z,91.70
2023-02-23T23:12:19.039Z,91.30
2023-02-23T23:14:26.477Z,90.90
2023-02-23T23:16:34.681Z,91.60
2023-02-23T23:18:44.630Z,91.80
2023-02-23T23:20:51.912Z,91.70
2023-02-23T23:22:59.347Z,91.40
2023-02-23T23:25:12.163Z,91.00
2023-02-23T23:27:20.842Z,90.50
2023-02-23T23:29:29.242Z,90.50
2023-02-23T23:31:37.694Z,90.40
2023-02-23T23:33:50.360Z,90.50
2023-02-23T23:35:57.554Z,90.50
2023-02-23T23:38:04.421Z,90.40
2023-02-23T23:40:16.416Z,90.70
2023-02-23T23:42:23.341Z,91.20
2023-02-23T23:44:31.055Z,91.20
2023-02-23T23:46:39.346Z,91.10
2023-02-23T23:48:48.730Z,91.00
2023-02-23T23:50:57.245Z,91.00
2023-02-23T23:53:05.559Z,90.80
2023-02-23T23:55:13.446Z,90.80
2023-02-23T23:57:20.679Z,90.80
2023-02-23T23:59:28.829Z,90.90
